sensor_id;sensor_type;location;lat;lon;timestamp;pressure;altitude;pressure_sealevel;temperature;humidity
9415;BME280;4746;35.664;139.738;2022-12-18T00:01:49;99258.63;;;11.33;45.00
9415;BME280;4746;35.664;139.738;2022-12-18T00:04:23;99258.56;;;11.39;45.69
9415;BME280;4746;35.664;139.738;2022-12-18T00:06:50;99263.63;;;11.42;45.62
9415;BME280;4746;35.664;139.738;2022-12-18T00:09:18;99267.00;;;11.45;45.95
9415;BME280;4746;35.664;139.738;2022-12-18T00:11:46;99265.28;;;11.46;45.90
9415;BME280;4746;35.664;139.738;2022-12-18T00:14:15;99283.19;;;11.52;45.26
9415;BME280;4746;35.664;139.738;2022-12-18T00:16:46;99275.47;;;11.55;45.03
9415;BME280;4746;35.664;139.738;2022-12-18T00:19:15;99279.69;;;11.62;45.45
9415;BME280;4746;35.664;139.738;2022-12-18T00:21:44;99271.84;;;11.71;45.52
9415;BME280;4746;35.664;139.738;2022-12-18T00:24:12;99263.25;;;11.76;45.31
9415;BME280;4746;35.664;139.738;2022-12-18T00:26:40;99263.97;;;11.84;45.45
9415;BME280;4746;35.664;139.738;2022-12-18T00:29:13;99269.81;;;11.96;45.56
9415;BME280;4746;35.664;139.738;2022-12-18T00:31:42;99259.38;;;12.05;45.20
9415;BME280;4746;35.664;139.738;2022-12-18T00:34:13;99272.97;;;12.13;45.16
9415;BME280;4746;35.664;139.738;2022-12-18T00:36:41;99274.69;;;12.14;45.21
9415;BME280;4746;35.664;139.738;2022-12-18T00:39:10;99272.91;;;12.16;44.29
9415;BME280;4746;35.664;139.738;2022-12-18T00:41:39;99261.00;;;12.12;44.12
9415;BME280;4746;35.664;139.738;2022-12-18T00:44:24;99277.31;;;12.10;44.26
9415;BME280;4746;35.664;139.738;2022-12-18T00:46:52;99276.50;;;12.06;43.94
9415;BME280;4746;35.664;139.738;2022-12-18T00:49:20;99278.28;;;12.01;44.25
9415;BME280;4746;35.664;139.738;2022-12-18T00:51:49;99261.16;;;12.03;44.17
9415;BME280;4746;35.664;139.738;2022-12-18T00:54:17;99261.03;;;12.11;44.10
9415;BME280;4746;35.664;139.738;2022-12-18T00:56:45;99267.78;;;12.16;44.22
9415;BME280;4746;35.664;139.738;2022-12-18T00:59:12;99264.34;;;12.17;44.41
9415;BME280;4746;35.664;139.738;2022-12-18T01:01:40;99269.50;;;12.17;44.01
9415;BME280;4746;35.664;139.738;2022-12-18T01:04:08;99269.50;;;12.17;44.04
9415;BME280;4746;35.664;139.738;2022-12-18T01:06:36;99268.56;;;12.23;44.17
9415;BME280;4746;35.664;139.738;2022-12-18T01:09:03;99270.19;;;12.27;43.81
9415;BME280;4746;35.664;139.738;2022-12-18T01:11:32;99262.53;;;12.25;44.10
9415;BME280;4746;35.664;139.738;2022-12-18T01:13:59;99261.50;;;12.35;44.01
9415;BME280;4746;35.664;139.738;2022-12-18T01:16:27;99252.00;;;12.40;43.93
9415;BME280;4746;35.664;139.738;2022-12-18T01:18:55;99268.00;;;12.57;44.03
9415;BME280;4746;35.664;139.738;2022-12-18T01:21:23;99252.34;;;12.72;43.86
9415;BME280;4746;35.664;139.738;2022-12-18T01:23:56;99259.19;;;12.73;43.60
9415;BME280;4746;35.664;139.738;2022-12-18T01:26:25;99254.03;;;12.73;43.82
9415;BME280;4746;35.664;139.738;2022-12-18T01:28:59;99252.16;;;12.82;43.64
9415;BME280;4746;35.664;139.738;2022-12-18T01:31:33;99238.34;;;12.89;43.07
9415;BME280;4746;35.664;139.738;2022-12-18T01:34:05;99233.28;;;12.85;42.73
9415;BME280;4746;35.664;139.738;2022-12-18T01:36:36;99228.94;;;12.90;43.18
9415;BME280;4746;35.664;139.738;2022-12-18T01:39:09;99223.44;;;13.08;43.08
9415;BME280;4746;35.664;139.738;2022-12-18T01:41:39;99210.22;;;13.25;43.05
9415;BME280;4746;35.664;139.738;2022-12-18T01:47:33;99178.25;;;13.37;42.20
9415;BME280;4746;35.664;139.738;2022-12-18T01:50:21;99186.50;;;13.52;42.03
9415;BME280;4746;35.664;139.738;2022-12-18T01:53:21;99176.50;;;13.77;42.04
9415;BME280;4746;35.664;139.738;2022-12-18T01:55:56;99181.28;;;13.93;41.61
9415;BME280;4746;35.664;139.738;2022-12-18T02:01:09;99168.50;;;14.26;40.71
9415;BME280;4746;35.664;139.738;2022-12-18T02:03:39;99173.25;;;14.43;39.97
9415;BME280;4746;35.664;139.738;2022-12-18T02:09:28;99170.94;;;14.65;39.90
9415;BME280;4746;35.664;139.738;2022-12-18T02:12:35;99155.88;;;14.82;39.79
9415;BME280;4746;35.664;139.738;2022-12-18T02:16:02;99162.50;;;14.91;38.76
9415;BME280;4746;35.664;139.738;2022-12-18T02:18:40;99156.25;;;14.67;36.16
9415;BME280;4746;35.664;139.738;2022-12-18T02:26:59;99147.28;;;14.50;36.22
9415;BME280;4746;35.664;139.738;2022-12-18T02:29:48;99156.25;;;14.67;36.74
9415;BME280;4746;35.664;139.738;2022-12-18T02:32:35;99146.16;;;14.92;36.64
9415;BME280;4746;35.664;139.738;2022-12-18T02:35:10;99141.31;;;15.10;36.25
9415;BME280;4746;35.664;139.738;2022-12-18T02:37:43;99147.50;;;15.35;34.65
9415;BME280;4746;35.664;139.738;2022-12-18T02:40:14;99138.69;;;15.42;32.53
9415;BME280;4746;35.664;139.738;2022-12-18T02:42:42;99125.56;;;15.49;32.02
9415;BME280;4746;35.664;139.738;2022-12-18T02:45:10;99108.66;;;15.67;31.77
9415;BME280;4746;35.664;139.738;2022-12-18T02:47:43;99109.69;;;15.89;32.58
9415;BME280;4746;35.664;139.738;2022-12-18T02:50:35;99112.16;;;16.17;32.63
9415;BME280;4746;35.664;139.738;2022-12-18T02:53:38;99110.41;;;16.18;32.39
9415;BME280;4746;35.664;139.738;2022-12-18T02:56:26;99104.81;;;16.05;31.69
9415;BME280;4746;35.664;139.738;2022-12-18T02:59:15;99098.41;;;15.91;31.09
9415;BME280;4746;35.664;139.738;2022-12-18T03:02:20;99098.28;;;15.68;30.78
9415;BME280;4746;35.664;139.738;2022-12-18T03:05:07;99099.06;;;15.43;29.53
9415;BME280;4746;35.664;139.738;2022-12-18T03:10:19;99111.31;;;14.77;30.24
9415;BME280;4746;35.664;139.738;2022-12-18T03:13:00;99110.09;;;14.58;30.75
9415;BME280;4746;35.664;139.738;2022-12-18T03:15:40;99119.03;;;14.46;28.03
9415;BME280;4746;35.664;139.738;2022-12-18T03:18:41;99112.44;;;14.36;26.43
9415;BME280;4746;35.664;139.738;2022-12-18T03:21:12;99103.94;;;14.94;23.68
9415;BME280;4746;35.664;139.738;2022-12-18T03:23:47;99103.47;;;15.67;22.83
9415;BME280;4746;35.664;139.738;2022-12-18T03:26:21;99110.97;;;16.01;21.41
9415;BME280;4746;35.664;139.738;2022-12-18T03:28:59;99093.09;;;16.46;21.13
9415;BME280;4746;35.664;139.738;2022-12-18T03:31:31;99104.09;;;16.76;20.30
9415;BME280;4746;35.664;139.738;2022-12-18T03:34:14;99093.47;;;16.84;20.10
9415;BME280;4746;35.664;139.738;2022-12-18T03:36:43;99092.56;;;16.85;21.01
9415;BME280;4746;35.664;139.738;2022-12-18T03:39:10;99068.91;;;16.95;19.99
9415;BME280;4746;35.664;139.738;2022-12-18T03:45:32;99081.41;;;19.50;18.50
9415;BME280;4746;35.664;139.738;2022-12-18T03:50:25;99090.09;;;19.67;16.87
9415;BME280;4746;35.664;139.738;2022-12-18T03:55:59;99072.72;;;21.51;15.85
9415;BME280;4746;35.664;139.738;2022-12-18T03:58:29;99075.75;;;22.63;15.36
9415;BME280;4746;35.664;139.738;2022-12-18T04:01:05;99082.06;;;23.97;15.10
9415;BME280;4746;35.664;139.738;2022-12-18T04:03:36;99076.53;;;24.40;14.83
9415;BME280;4746;35.664;139.738;2022-12-18T04:06:06;99089.19;;;24.72;15.15
9415;BME280;4746;35.664;139.738;2022-12-18T04:08:35;99080.78;;;25.78;15.07
9415;BME280;4746;35.664;139.738;2022-12-18T04:11:03;99075.38;;;26.94;15.01
9415;BME280;4746;35.664;139.738;2022-12-18T04:13:36;99078.88;;;25.44;15.85
9415;BME280;4746;35.664;139.738;2022-12-18T04:16:05;99069.25;;;26.03;15.93
9415;BME280;4746;35.664;139.738;2022-12-18T04:18:34;99085.66;;;25.59;15.81
9415;BME280;4746;35.664;139.738;2022-12-18T04:21:02;99085.16;;;26.36;15.91
9415;BME280;4746;35.664;139.738;2022-12-18T04:23:30;99084.03;;;27.18;16.13
9415;BME280;4746;35.664;139.738;2022-12-18T04:25:57;99082.31;;;28.14;15.75
9415;BME280;4746;35.664;139.738;2022-12-18T04:28:26;99090.41;;;28.84;15.74
9415;BME280;4746;35.664;139.738;2022-12-18T04:30:54;99087.41;;;29.58;15.03
9415;BME280;4746;35.664;139.738;2022-12-18T04:33:21;99094.38;;;30.17;14.58
9415;BME280;4746;35.664;139.738;2022-12-18T04:35:49;99096.44;;;30.99;13.75
9415;BME280;4746;35.664;139.738;2022-12-18T04:38:16;99091.78;;;31.56;13.68
9415;BME280;4746;35.664;139.738;2022-12-18T04:40:44;99085.69;;;32.34;13.25
9415;BME280;4746;35.664;139.738;2022-12-18T04:43:12;99098.38;;;32.23;12.77
9415;BME280;4746;35.664;139.738;2022-12-18T04:45:39;99090.41;;;31.96;12.59
9415;BME280;4746;35.664;139.738;2022-12-18T04:48:07;99092.47;;;31.84;12.30
9415;BME280;4746;35.664;139.738;2022-12-18T04:50:34;99097.09;;;32.00;12.75
9415;BME280;4746;35.664;139.738;2022-12-18T04:53:02;99097.53;;;32.57;12.58
9415;BME280;4746;35.664;139.738;2022-12-18T04:55:30;99084.44;;;33.31;11.89
9415;BME280;4746;35.664;139.738;2022-12-18T04:57:57;99091.91;;;33.61;11.87
9415;BME280;4746;35.664;139.738;2022-12-18T05:00:25;99097.88;;;33.55;11.90
9415;BME280;4746;35.664;139.738;2022-12-18T05:02:52;99099.09;;;33.35;11.74
9415;BME280;4746;35.664;139.738;2022-12-18T05:05:20;99096.38;;;33.27;10.89
9415;BME280;4746;35.664;139.738;2022-12-18T05:07:48;99100.47;;;32.71;11.08
9415;BME280;4746;35.664;139.738;2022-12-18T05:10:15;99094.97;;;32.90;11.13
9415;BME280;4746;35.664;139.738;2022-12-18T05:12:43;99094.66;;;33.44;11.11
9415;BME280;4746;35.664;139.738;2022-12-18T05:15:34;99116.53;;;34.12;10.57
9415;BME280;4746;35.664;139.738;2022-12-18T05:18:03;99107.94;;;34.50;10.23
9415;BME280;4746;35.664;139.738;2022-12-18T05:20:31;99112.81;;;34.70;9.90
9415;BME280;4746;35.664;139.738;2022-12-18T05:22:59;99102.81;;;34.80;9.77
9415;BME280;4746;35.664;139.738;2022-12-18T05:25:26;99116.00;;;35.44;9.25
9415;BME280;4746;35.664;139.738;2022-12-18T05:27:54;99113.19;;;35.84;9.68
9415;BME280;4746;35.664;139.738;2022-12-18T05:30:22;99119.44;;;36.07;9.03
9415;BME280;4746;35.664;139.738;2022-12-18T05:32:49;99129.69;;;36.25;8.83
9415;BME280;4746;35.664;139.738;2022-12-18T05:35:17;99132.16;;;36.05;9.10
9415;BME280;4746;35.664;139.738;2022-12-18T05:37:44;99136.69;;;35.88;8.83
9415;BME280;4746;35.664;139.738;2022-12-18T05:40:12;99134.38;;;35.85;8.75
9415;BME280;4746;35.664;139.738;2022-12-18T05:42:40;99133.69;;;35.37;8.87
9415;BME280;4746;35.664;139.738;2022-12-18T05:45:08;99136.50;;;35.51;8.44
9415;BME280;4746;35.664;139.738;2022-12-18T05:47:36;99139.66;;;35.55;8.04
9415;BME280;4746;35.664;139.738;2022-12-18T05:50:04;99137.00;;;35.55;8.27
9415;BME280;4746;35.664;139.738;2022-12-18T05:52:32;99141.72;;;35.21;7.47
9415;BME280;4746;35.664;139.738;2022-12-18T05:54:59;99149.31;;;34.21;7.26
9415;BME280;4746;35.664;139.738;2022-12-18T05:57:27;99146.88;;;33.94;7.34
9415;BME280;4746;35.664;139.738;2022-12-18T05:59:54;99156.44;;;33.79;7.20
9415;BME280;4746;35.664;139.738;2022-12-18T06:02:22;99166.66;;;32.90;7.37
9415;BME280;4746;35.664;139.738;2022-12-18T06:04:49;99173.25;;;32.51;7.26
9415;BME280;4746;35.664;139.738;2022-12-18T06:07:17;99177.41;;;31.47;7.84
9415;BME280;4746;35.664;139.738;2022-12-18T06:09:45;99177.63;;;31.07;7.85
9415;BME280;4746;35.664;139.738;2022-12-18T06:12:12;99171.66;;;31.05;7.64
9415;BME280;4746;35.664;139.738;2022-12-18T06:14:40;99179.06;;;31.02;8.04
9415;BME280;4746;35.664;139.738;2022-12-18T06:17:07;99191.03;;;30.59;8.09
9415;BME280;4746;35.664;139.738;2022-12-18T06:19:35;99179.66;;;30.28;7.80
9415;BME280;4746;35.664;139.738;2022-12-18T06:22:03;99203.53;;;29.69;7.87
9415;BME280;4746;35.664;139.738;2022-12-18T06:24:30;99204.56;;;29.07;7.96
9415;BME280;4746;35.664;139.738;2022-12-18T06:26:58;99233.22;;;28.38;8.41
9415;BME280;4746;35.664;139.738;2022-12-18T06:29:26;99216.59;;;27.94;8.93
9415;BME280;4746;35.664;139.738;2022-12-18T06:31:53;99243.75;;;28.05;8.40
9415;BME280;4746;35.664;139.738;2022-12-18T06:34:21;99237.53;;;27.51;8.53
9415;BME280;4746;35.664;139.738;2022-12-18T06:36:48;99226.69;;;27.22;8.35
9415;BME280;4746;35.664;139.738;2022-12-18T06:39:16;99241.72;;;27.09;8.89
9415;BME280;4746;35.664;139.738;2022-12-18T06:41:43;99252.75;;;27.14;8.94
9415;BME280;4746;35.664;139.738;2022-12-18T06:44:11;99254.56;;;27.24;8.88
9415;BME280;4746;35.664;139.738;2022-12-18T06:46:39;99273.50;;;27.06;8.93
9415;BME280;4746;35.664;139.738;2022-12-18T06:49:06;99250.06;;;26.20;8.55
9415;BME280;4746;35.664;139.738;2022-12-18T06:51:36;99263.97;;;25.48;8.89
9415;BME280;4746;35.664;139.738;2022-12-18T06:54:04;99270.56;;;24.77;9.04
9415;BME280;4746;35.664;139.738;2022-12-18T06:56:32;99268.81;;;24.64;9.32
9415;BME280;4746;35.664;139.738;2022-12-18T06:59:03;99275.78;;;25.04;9.55
9415;BME280;4746;35.664;139.738;2022-12-18T07:01:30;99279.94;;;25.32;9.62
9415;BME280;4746;35.664;139.738;2022-12-18T07:03:58;99283.72;;;25.41;9.67
9415;BME280;4746;35.664;139.738;2022-12-18T07:06:27;99290.03;;;24.73;9.45
9415;BME280;4746;35.664;139.738;2022-12-18T07:08:55;99297.66;;;23.82;9.58
9415;BME280;4746;35.664;139.738;2022-12-18T07:11:23;99296.63;;;22.83;9.85
9415;BME280;4746;35.664;139.738;2022-12-18T07:13:52;99299.84;;;21.78;10.22
9415;BME280;4746;35.664;139.738;2022-12-18T07:16:22;99314.25;;;20.84;11.13
9415;BME280;4746;35.664;139.738;2022-12-18T07:18:49;99319.63;;;20.44;11.16
9415;BME280;4746;35.664;139.738;2022-12-18T07:21:19;99327.28;;;20.11;11.41
9415;BME280;4746;35.664;139.738;2022-12-18T07:23:47;99326.13;;;19.59;11.94
9415;BME280;4746;35.664;139.738;2022-12-18T07:26:18;99345.38;;;18.29;12.34
9415;BME280;4746;35.664;139.738;2022-12-18T07:28:46;99345.34;;;17.09;12.81
9415;BME280;4746;35.664;139.738;2022-12-18T07:31:18;99348.13;;;16.19;13.33
9415;BME280;4746;35.664;139.738;2022-12-18T07:33:46;99343.19;;;15.53;14.12
9415;BME280;4746;35.664;139.738;2022-12-18T07:36:14;99363.38;;;15.03;14.19
9415;BME280;4746;35.664;139.738;2022-12-18T07:38:42;99355.81;;;14.60;14.25
9415;BME280;4746;35.664;139.738;2022-12-18T07:41:12;99373.66;;;14.30;14.54
9415;BME280;4746;35.664;139.738;2022-12-18T07:43:41;99353.66;;;14.02;14.73
9415;BME280;4746;35.664;139.738;2022-12-18T07:46:10;99373.03;;;13.77;15.20
9415;BME280;4746;35.664;139.738;2022-12-18T07:48:38;99382.03;;;13.55;15.30
9415;BME280;4746;35.664;139.738;2022-12-18T07:51:07;99384.91;;;13.39;15.28
9415;BME280;4746;35.664;139.738;2022-12-18T07:53:36;99396.38;;;13.20;15.39
9415;BME280;4746;35.664;139.738;2022-12-18T07:56:07;99410.31;;;13.09;15.98
9415;BME280;4746;35.664;139.738;2022-12-18T07:58:36;99399.41;;;12.92;16.24
9415;BME280;4746;35.664;139.738;2022-12-18T08:01:10;99396.94;;;12.83;16.32
9415;BME280;4746;35.664;139.738;2022-12-18T08:03:40;99409.94;;;12.74;16.31
9415;BME280;4746;35.664;139.738;2022-12-18T08:06:10;99428.06;;;12.65;16.43
9415;BME280;4746;35.664;139.738;2022-12-18T08:08:37;99444.41;;;12.59;15.88
9415;BME280;4746;35.664;139.738;2022-12-18T08:11:07;99431.63;;;12.55;16.42
9415;BME280;4746;35.664;139.738;2022-12-18T08:13:40;99435.06;;;12.54;16.53
9415;BME280;4746;35.664;139.738;2022-12-18T08:16:08;99449.69;;;12.50;16.41
9415;BME280;4746;35.664;139.738;2022-12-18T08:18:37;99446.25;;;12.48;16.84
9415;BME280;4746;35.664;139.738;2022-12-18T08:21:17;99454.78;;;12.52;16.98
9415;BME280;4746;35.664;139.738;2022-12-18T08:23:45;99462.53;;;12.49;17.31
9415;BME280;4746;35.664;139.738;2022-12-18T08:26:13;99466.81;;;12.50;16.54
9415;BME280;4746;35.664;139.738;2022-12-18T08:28:41;99472.81;;;12.49;16.46
9415;BME280;4746;35.664;139.738;2022-12-18T08:31:09;99467.75;;;12.45;16.54
9415;BME280;4746;35.664;139.738;2022-12-18T08:33:38;99483.19;;;12.43;16.71
9415;BME280;4746;35.664;139.738;2022-12-18T08:36:07;99488.34;;;12.42;16.86
9415;BME280;4746;35.664;139.738;2022-12-18T08:38:35;99484.91;;;12.41;16.45
9415;BME280;4746;35.664;139.738;2022-12-18T08:41:07;99498.59;;;12.40;16.50
9415;BME280;4746;35.664;139.738;2022-12-18T08:43:36;99497.78;;;12.37;16.92
9415;BME280;4746;35.664;139.738;2022-12-18T08:46:26;99504.69;;;12.35;16.87
9415;BME280;4746;35.664;139.738;2022-12-18T08:48:55;99503.88;;;12.28;16.76
9415;BME280;4746;35.664;139.738;2022-12-18T08:51:23;99527.91;;;12.24;16.67
9415;BME280;4746;35.664;139.738;2022-12-18T08:53:50;99536.53;;;12.17;16.07
9415;BME280;4746;35.664;139.738;2022-12-18T08:56:18;99526.38;;;12.08;16.43
9415;BME280;4746;35.664;139.738;2022-12-18T08:58:45;99527.31;;;11.98;16.25
9415;BME280;4746;35.664;139.738;2022-12-18T09:01:13;99529.13;;;11.90;16.72
9415;BME280;4746;35.664;139.738;2022-12-18T09:03:41;99534.31;;;11.84;16.58
9415;BME280;4746;35.664;139.738;2022-12-18T09:06:09;99536.94;;;11.78;17.05
9415;BME280;4746;35.664;139.738;2022-12-18T09:08:38;99542.09;;;11.77;17.05
9415;BME280;4746;35.664;139.738;2022-12-18T09:11:20;99548.06;;;11.75;17.06
9415;BME280;4746;35.664;139.738;2022-12-18T09:13:49;99553.25;;;11.67;17.39
9415;BME280;4746;35.664;139.738;2022-12-18T09:16:17;99557.56;;;11.64;17.36
9415;BME280;4746;35.664;139.738;2022-12-18T09:18:47;99558.44;;;11.61;17.73
9415;BME280;4746;35.664;139.738;2022-12-18T09:21:19;99572.13;;;11.60;17.77
9415;BME280;4746;35.664;139.738;2022-12-18T09:23:52;99566.19;;;11.57;17.72
9415;BME280;4746;35.664;139.738;2022-12-18T09:26:22;99579.06;;;11.52;18.13
9415;BME280;4746;35.664;139.738;2022-12-18T09:28:53;99591.00;;;11.49;17.84
9415;BME280;4746;35.664;139.738;2022-12-18T09:31:23;99603.84;;;11.46;17.84
9415;BME280;4746;35.664;139.738;2022-12-18T09:33:52;99602.19;;;11.39;17.64
9415;BME280;4746;35.664;139.738;2022-12-18T09:36:19;99597.09;;;11.33;17.63
9415;BME280;4746;35.664;139.738;2022-12-18T09:38:47;99607.38;;;11.28;17.38
9415;BME280;4746;35.664;139.738;2022-12-18T09:41:52;99611.66;;;11.29;18.17
9415;BME280;4746;35.664;139.738;2022-12-18T09:44:43;99610.84;;;11.20;17.78
9415;BME280;4746;35.664;139.738;2022-12-18T09:47:25;99610.88;;;11.14;17.23
9415;BME280;4746;35.664;139.738;2022-12-18T09:50:35;99620.28;;;11.15;16.87
9415;BME280;4746;35.664;139.738;2022-12-18T09:53:14;99625.44;;;11.09;17.23
9415;BME280;4746;35.664;139.738;2022-12-18T09:55:46;99633.13;;;11.09;17.50
9415;BME280;4746;35.664;139.738;2022-12-18T09:58:46;99643.34;;;11.15;17.26
9415;BME280;4746;35.664;139.738;2022-12-18T10:01:21;99640.78;;;11.13;16.91
9415;BME280;4746;35.664;139.738;2022-12-18T10:03:50;99656.16;;;11.13;17.54
9415;BME280;4746;35.664;139.738;2022-12-18T10:10:10;99662.13;;;11.17;16.63
9415;BME280;4746;35.664;139.738;2022-12-18T10:20:56;99686.97;;;11.06;17.02
9415;BME280;4746;35.664;139.738;2022-12-18T10:26:21;99694.72;;;10.90;17.13
9415;BME280;4746;35.664;139.738;2022-12-18T10:28:49;99711.81;;;10.83;17.22
9415;BME280;4746;35.664;139.738;2022-12-18T10:31:22;99707.53;;;10.76;17.00
9415;BME280;4746;35.664;139.738;2022-12-18T10:33:49;99716.09;;;10.69;16.82
9415;BME280;4746;35.664;139.738;2022-12-18T10:36:17;99716.09;;;10.68;17.17
9415;BME280;4746;35.664;139.738;2022-12-18T10:38:45;99727.22;;;10.59;17.28
9415;BME280;4746;35.664;139.738;2022-12-18T10:43:48;99737.47;;;10.52;16.98
9415;BME280;4746;35.664;139.738;2022-12-18T10:46:19;99742.59;;;10.50;17.22
9415;BME280;4746;35.664;139.738;2022-12-18T10:51:31;99757.09;;;10.48;17.44
9415;BME280;4746;35.664;139.738;2022-12-18T10:54:25;99738.31;;;10.43;17.71
9415;BME280;4746;35.664;139.738;2022-12-18T10:57:34;99749.44;;;10.39;17.85
9415;BME280;4746;35.664;139.738;2022-12-18T11:00:29;99755.41;;;10.31;17.37
9415;BME280;4746;35.664;139.738;2022-12-18T11:02:58;99764.78;;;10.25;17.58
9415;BME280;4746;35.664;139.738;2022-12-18T11:05:32;99770.75;;;10.25;17.50
9415;BME280;4746;35.664;139.738;2022-12-18T11:08:02;99750.25;;;10.22;17.91
9415;BME280;4746;35.664;139.738;2022-12-18T11:10:37;99756.22;;;10.23;17.56
9415;BME280;4746;35.664;139.738;2022-12-18T11:13:29;99777.56;;;10.23;17.87
9415;BME280;4746;35.664;139.738;2022-12-18T11:15:59;99754.53;;;10.19;17.61
9415;BME280;4746;35.664;139.738;2022-12-18T11:18:36;99762.19;;;10.20;17.73
9415;BME280;4746;35.664;139.738;2022-12-18T11:21:11;99754.53;;;10.19;17.77
9415;BME280;4746;35.664;139.738;2022-12-18T11:23:52;99764.75;;;10.20;17.43
9415;BME280;4746;35.664;139.738;2022-12-18T11:26:20;99763.06;;;10.15;17.31
9415;BME280;4746;35.664;139.738;2022-12-18T11:29:22;99759.66;;;10.17;17.06
9415;BME280;4746;35.664;139.738;2022-12-18T11:31:51;99761.34;;;10.11;17.49
9415;BME280;4746;35.664;139.738;2022-12-18T11:34:30;99765.63;;;10.15;17.02
9415;BME280;4746;35.664;139.738;2022-12-18T11:37:01;99768.16;;;10.12;17.39
9415;BME280;4746;35.664;139.738;2022-12-18T11:39:57;99775.84;;;10.15;17.11
9415;BME280;4746;35.664;139.738;2022-12-18T11:42:49;99769.88;;;10.13;17.08
9415;BME280;4746;35.664;139.738;2022-12-18T11:45:30;99766.47;;;10.08;17.45
9415;BME280;4746;35.664;139.738;2022-12-18T11:49:06;99772.41;;;10.07;17.20
9415;BME280;4746;35.664;139.738;2022-12-18T11:51:08;99783.50;;;10.03;17.50
9415;BME280;4746;35.664;139.738;2022-12-18T11:53:38;99784.38;;;10.00;17.51
9415;BME280;4746;35.664;139.738;2022-12-18T11:56:38;99780.94;;;10.06;17.68
9415;BME280;4746;35.664;139.738;2022-12-18T11:59:39;99783.50;;;10.03;17.44
9415;BME280;4746;35.664;139.738;2022-12-18T12:02:52;99790.31;;;10.01;17.92
9415;BME280;4746;35.664;139.738;2022-12-18T12:14:38;99808.16;;;9.87;17.51
9415;BME280;4746;35.664;139.738;2022-12-18T12:17:42;99809.88;;;9.87;17.73
9415;BME280;4746;35.664;139.738;2022-12-18T12:20:42;99817.53;;;9.84;17.49
9415;BME280;4746;35.664;139.738;2022-12-18T12:33:14;99839.66;;;9.76;17.51
9415;BME280;4746;35.664;139.738;2022-12-18T12:39:01;99853.31;;;9.69;17.89
9415;BME280;4746;35.664;139.738;2022-12-18T12:41:35;99854.16;;;9.67;17.92
9415;BME280;4746;35.664;139.738;2022-12-18T12:44:43;99871.22;;;9.70;18.06
9415;BME280;4746;35.664;139.738;2022-12-18T12:47:29;99860.09;;;9.67;17.83
9415;BME280;4746;35.664;139.738;2022-12-18T12:50:01;99862.63;;;9.63;18.08
9415;BME280;4746;35.664;139.738;2022-12-18T12:52:41;99873.69;;;9.60;17.92
9415;BME280;4746;35.664;139.738;2022-12-18T12:55:25;99877.09;;;9.56;18.11
9415;BME280;4746;35.664;139.738;2022-12-18T12:58:29;99854.94;;;9.55;18.45
9415;BME280;4746;35.664;139.738;2022-12-18T13:01:17;99867.69;;;9.49;18.52
9415;BME280;4746;35.664;139.738;2022-12-18T13:09:04;99886.38;;;9.38;18.36
9415;BME280;4746;35.664;139.738;2022-12-18T13:20:13;99900.88;;;9.40;19.00
9415;BME280;4746;35.664;139.738;2022-12-18T13:22:48;99883.78;;;9.36;18.73
9415;BME280;4746;35.664;139.738;2022-12-18T13:25:37;99903.41;;;9.37;19.26
9415;BME280;4746;35.664;139.738;2022-12-18T13:28:10;99899.97;;;9.34;19.41
9415;BME280;4746;35.664;139.738;2022-12-18T13:31:05;99894.84;;;9.35;19.24
9415;BME280;4746;35.664;139.738;2022-12-18T13:33:43;99897.41;;;9.35;19.16
9415;BME280;4746;35.664;139.738;2022-12-18T13:36:27;99908.50;;;9.37;19.55
9415;BME280;4746;35.664;139.738;2022-12-18T13:42:31;99912.75;;;9.34;19.12
9415;BME280;4746;35.664;139.738;2022-12-18T13:45:01;99921.25;;;9.31;19.83
9415;BME280;4746;35.664;139.738;2022-12-18T13:47:38;99916.19;;;9.34;19.44
9415;BME280;4746;35.664;139.738;2022-12-18T13:50:35;99908.47;;;9.33;19.77
9415;BME280;4746;35.664;139.738;2022-12-18T13:53:05;99933.16;;;9.29;19.80
9415;BME280;4746;35.664;139.738;2022-12-18T13:55:33;99920.38;;;9.26;19.40
9415;BME280;4746;35.664;139.738;2022-12-18T13:58:11;99936.53;;;9.25;19.96
9415;BME280;4746;35.664;139.738;2022-12-18T14:00:43;99933.09;;;9.20;19.63
9415;BME280;4746;35.664;139.738;2022-12-18T14:03:26;99936.50;;;9.19;19.88
9415;BME280;4746;35.664;139.738;2022-12-18T14:06:07;99933.88;;;9.13;20.09
9415;BME280;4746;35.664;139.738;2022-12-18T14:08:41;99939.81;;;9.09;20.35
9415;BME280;4746;35.664;139.738;2022-12-18T14:11:22;99935.56;;;9.10;20.29
9415;BME280;4746;35.664;139.738;2022-12-18T14:13:50;99948.31;;;9.07;21.08
9415;BME280;4746;35.664;139.738;2022-12-18T14:16:18;99935.53;;;9.07;20.24
9415;BME280;4746;35.664;139.738;2022-12-18T14:18:57;99931.28;;;9.07;20.56
9415;BME280;4746;35.664;139.738;2022-12-18T14:21:32;99934.66;;;9.03;20.42
9415;BME280;4746;35.664;139.738;2022-12-18T14:24:21;99940.59;;;9.02;20.85
9415;BME280;4746;35.664;139.738;2022-12-18T14:26:50;99947.38;;;8.96;20.99
9415;BME280;4746;35.664;139.738;2022-12-18T14:29:26;99943.94;;;8.97;20.81
9415;BME280;4746;35.664;139.738;2022-12-18T14:32:15;99961.00;;;8.97;21.02
9415;BME280;4746;35.664;139.738;2022-12-18T14:34:53;99933.72;;;8.93;20.98
9415;BME280;4746;35.664;139.738;2022-12-18T14:37:26;99949.88;;;8.92;21.09
9415;BME280;4746;35.664;139.738;2022-12-18T14:40:03;99949.84;;;8.89;21.43
9415;BME280;4746;35.664;139.738;2022-12-18T14:42:32;99947.28;;;8.86;21.25
9415;BME280;4746;35.664;139.738;2022-12-18T14:45:38;99944.72;;;8.86;21.02
9415;BME280;4746;35.664;139.738;2022-12-18T14:48:24;99937.00;;;8.78;21.12
9415;BME280;4746;35.664;139.738;2022-12-18T14:54:04;99937.75;;;8.70;21.45
9415;BME280;4746;35.664;139.738;2022-12-18T14:56:44;99936.00;;;8.66;21.68
9415;BME280;4746;35.664;139.738;2022-12-18T14:59:23;99945.31;;;8.62;22.08
9415;BME280;4746;35.664;139.738;2022-12-18T15:02:04;99938.50;;;8.60;21.98
9415;BME280;4746;35.664;139.738;2022-12-18T15:04:41;99942.75;;;8.58;22.05
9415;BME280;4746;35.664;139.738;2022-12-18T15:07:24;99930.81;;;8.60;21.83
9415;BME280;4746;35.664;139.738;2022-12-18T15:18:12;99959.66;;;8.50;22.41